Du har inga inställningar för hoppväder.nu

Hoppväder.nu

Senast uppdaterat 02:16

UTC-tid

2018-01-17 kl. 01:16


Sol och måne

Solen går upp 8:54 och går ner 15:07 (beräknade cirkatider)
Nästa fullmåne blir om 14 dagar (2018-01-31)

METAR

ESNN (Sundsvall)
(26 minuter sedan)
ESNN 170050Z 13019KT 4900 -SN BKN009 BKN015 OVC019 M01/M02 Q0991=



ESNK (Kramfors)
(26 minuter sedan)
ESNK 170050Z AUTO 15015KT 2100 -SN BKN002/// OVC024/// M01/M02 Q0992=



ESNO (Örnsköldsvik)
(26 minuter sedan)
ESNO 170050Z AUTO 14017KT 6000 FZUP OVC012/// M03/M05 Q0995=



ESNY (Söderhamn)
ESNY NIL=



ESNZ (Östersund)
(26 minuter sedan)
ESNZ 170050Z 13015KT 9999 -SN BKN009 OVC011 M02/M04 Q0984=



TAF

ESNN (Sundsvall)
(106 minuter sedan)
ESNN 162330Z 1700/1702 14022KT 7000 -RASN OVC015 TEMPO 1700/1702 13022G32KT 1200 -SN BKN009=



ESNK (Kramfors)
(136 minuter sedan)
ESNK 162300Z NIL=



ESNO (Örnsköldsvik)
(136 minuter sedan)
ESNO 162300Z NIL=



ESNY (Söderhamn)
ESNY



ESNZ (Östersund)
(136 minuter sedan)
ESNZ 162300Z NIL=





Kodnycklar till TAF och METAR






LHP

(Sundsvall är område D1a i Sydöstra delen)

Prognos är inte uppdaterad
ÖVERSIKTLIG PROGNOS FÖR OMRÅDE C UTFÄRDAD 161550
GÄLLANDE DEN 17 JANUARI 2018 MELLAN 05 OCH 17 UTC


Väderöversikt
Ett utbrett snöfallsområde berör Norrland under dagen FJÄLLEN: I hela fjällkedjan förekommer snöfall, snödrev och en frisk till hård ostlig vind, Lapplandsfjällen något svagare vind
SYDÖSTRA DELEN


Sikt/Väder/Moln
05-17UTC: I hela området: Sikt <1.5km i snöfall, lokalt 3km - 5km. Molnbas <500ft, lokalt 1500ft - 2000ft.

CB/TCU Moln
05-17UTC: I hela området: Väntas inte förekomma under perioden

Vind vid marken
05-09UTC: Område D2a: SO/7-28 knop, byar upp till 42 knop.
Område D1c: SO/26-32 knop, byar upp till 44 knop.
Område D1a: SO/13-32 knop, byar upp till 43 knop.
Område D2b: SO/9-26 knop, byar upp till 36 knop.
Område D1b: SO/12-32 knop, byar upp till 43 knop.

09-13UTC: Område D1b: O-SO/11-27 knop, byar upp till 37 knop.
Område D1c: O-SO/24-28 knop.
Område D2b: O-SO/8-25 knop, byar upp till 34 knop.
Område D1a: O-SO/14-26 knop, byar upp till 36 knop.
Område D2a: O-SO/11-22 knop, byar upp till 33 knop.

13-17UTC: Område D2b: O-SO/6-24 knop, byar upp till 31 knop.
Område D1a: O-SO/12-24 knop, byar upp till 32 knop.
Område D2a: O-SO/8-20 knop, byar upp till 28 knop.
Område D1c: O-SO/22-25 knop.
Område D1b: O-SO/12-25 knop, byar upp till 33 knop.





Spotting

Hur fungerar spotthjälpen och Vindkartan?

Markvind är ca 0 m/s.



Vindkartan

Senast uppdaterad 02:16



All data kommer från LFV.se